Time;durP1;ratioP1;P1;durP2;ratioP2;P2;SDS_P1;SDS_P2;PMS_P1;PMS_P2;Temp;Humidity;BMP_temperature;BMP_pressure;BME280_temperature;BME280_humidity;BME280_pressure;Samples;Min_cycle;Max_cycle;Signal;HPM_P1;HPM_P2
2021/06/03 00:00:59;;;;;;;0.20;0.20;;;18.00;68.00;;;;;;5035583;28;20036;-78
2021/06/03 00:03:27;;;;;;;0.20;0.20;;;17.90;68.50;;;;;;5055179;28;20036;-79
2021/06/03 00:05:56;;;;;;;0.30;0.20;;;17.80;69.00;;;;;;5055470;28;20487;-78
2021/06/03 00:08:25;;;;;;;0.20;0.20;;;17.70;69.30;;;;;;5055688;28;20055;-78
2021/06/03 00:10:58;;;;;;;0.30;0.20;;;17.70;69.10;;;;;;5051937;28;20013;-77
2021/06/03 00:13:26;;;;;;;0.20;0.20;;;17.60;69.30;;;;;;5037034;28;20109;-78
2021/06/03 00:15:53;;;;;;;0.17;0.17;;;17.70;68.70;;;;;;5054691;28;20053;-78
2021/06/03 00:18:19;;;;;;;0.20;0.20;;;17.80;68.70;;;;;;5056929;28;20043;-78
2021/06/03 00:20:45;;;;;;;0.20;0.20;;;17.80;68.60;;;;;;5038825;28;20021;-78
2021/06/03 00:23:11;;;;;;;0.20;0.20;;;17.70;68.80;;;;;;5051350;28;20036;-78
2021/06/03 00:25:37;;;;;;;0.20;0.20;;;17.60;69.20;;;;;;5036890;28;20033;-78
2021/06/03 00:28:04;;;;;;;0.20;0.20;;;17.60;68.90;;;;;;5058878;28;20029;-77
2021/06/03 00:30:30;;;;;;;0.25;0.20;;;17.60;69.00;;;;;;5076621;28;20096;-78
2021/06/03 00:32:56;;;;;;;0.30;0.25;;;17.70;68.70;;;;;;5048699;28;20024;-77
2021/06/03 00:35:22;;;;;;;0.28;0.20;;;17.70;68.30;;;;;;5035149;28;20450;-78
2021/06/03 00:37:49;;;;;;;0.20;0.20;;;17.70;68.40;;;;;;5035183;28;20104;-78
2021/06/03 00:40:16;;;;;;;0.32;0.20;;;17.70;68.20;;;;;;5036422;28;20388;-78
2021/06/03 00:42:42;;;;;;;0.20;0.20;;;17.70;67.70;;;;;;5036393;28;20034;-78
2021/06/03 00:45:17;;;;;;;0.20;0.20;;;17.60;68.40;;;;;;5036407;28;20034;-78
2021/06/03 00:47:43;;;;;;;0.20;0.20;;;17.60;68.40;;;;;;5035163;28;20060;-78
2021/06/03 00:50:26;;;;;;;0.50;0.25;;;17.60;68.00;;;;;;5036197;28;20021;-78
2021/06/03 00:52:53;;;;;;;0.30;0.20;;;17.50;68.20;;;;;;5045294;28;20414;-78
2021/06/03 00:55:18;;;;;;;0.30;0.28;;;17.50;68.50;;;;;;5054918;28;20048;-77
2021/06/03 00:57:44;;;;;;;0.20;0.20;;;17.40;68.40;;;;;;5041896;28;20438;-78
2021/06/03 01:00:13;;;;;;;0.20;0.20;;;17.30;69.10;;;;;;5035408;28;20036;-78
2021/06/03 01:02:39;;;;;;;0.38;0.30;;;17.30;68.80;;;;;;5034814;28;20124;-77
2021/06/03 01:05:19;;;;;;;0.30;0.25;;;17.30;69.30;;;;;;5034374;28;20021;-78
2021/06/03 01:07:48;;;;;;;;;;;17.20;69.20;;;;;;5036827;28;20115;-78
2021/06/03 01:10:34;;;;;;;0.20;0.20;;;17.30;69.00;;;;;;5036094;28;19912;-78
2021/06/03 01:13:23;;;;;;;0.20;0.20;;;17.30;69.00;;;;;;5035924;28;20022;-78
2021/06/03 01:15:50;;;;;;;0.20;0.20;;;17.30;69.10;;;;;;5049405;28;20063;-78
2021/06/03 01:18:18;;;;;;;0.28;0.20;;;17.30;69.10;;;;;;5051226;28;20096;-78
2021/06/03 01:20:47;;;;;;;0.22;0.20;;;17.20;69.00;;;;;;5035637;28;20049;-78
2021/06/03 01:23:26;;;;;;;0.22;0.20;;;17.20;69.00;;;;;;5051588;28;20025;-78
2021/06/03 01:25:53;;;;;;;0.20;0.20;;;17.10;69.40;;;;;;5038680;28;20132;-78
2021/06/03 01:28:20;;;;;;;0.20;0.20;;;17.10;69.30;;;;;;5039472;28;20102;-78
2021/06/03 01:30:52;;;;;;;0.20;0.20;;;17.00;69.50;;;;;;5035587;28;20033;-78
2021/06/03 01:33:30;;;;;;;0.20;0.20;;;17.00;69.70;;;;;;5040836;28;20033;-78
2021/06/03 01:36:11;;;;;;;;;;;;;;;;;;;;;
2021/06/03 01:38:39;;;;;;;0.30;0.30;;;17.00;69.60;;;;;;5055529;28;20039;-78
2021/06/03 01:41:08;;;;;;;0.30;0.20;;;17.00;69.90;;;;;;5052787;28;20124;-78
2021/06/03 01:43:38;;;;;;;0.30;0.20;;;17.00;70.00;;;;;;5054022;28;20399;-78
2021/06/03 01:46:04;;;;;;;0.25;0.22;;;17.00;69.90;;;;;;5054963;28;20041;-78
2021/06/03 01:48:31;;;;;;;0.20;0.20;;;16.90;69.90;;;;;;5055328;28;20029;-78
2021/06/03 01:51:00;;;;;;;0.22;0.20;;;16.90;70.10;;;;;;5052662;28;20029;-78
2021/06/03 01:53:30;;;;;;;0.20;0.20;;;16.90;70.00;;;;;;5053876;28;20017;-77
2021/06/03 01:56:01;;;;;;;0.20;0.20;;;16.80;70.30;;;;;;5036179;28;20053;-78
2021/06/03 01:58:27;;;;;;;0.30;0.20;;;16.80;70.60;;;;;;5033823;28;20033;-78
2021/06/03 02:00:53;;;;;;;0.40;0.30;;;16.80;70.10;;;;;;5035188;28;20033;-78
2021/06/03 02:03:26;;;;;;;0.20;0.20;;;16.80;70.30;;;;;;5040442;28;20113;-78
2021/06/03 02:05:55;;;;;;;0.20;0.20;;;16.70;70.60;;;;;;5050298;28;20113;-78
2021/06/03 02:08:21;;;;;;;0.30;0.30;;;16.60;70.60;;;;;;5035105;28;20022;-78
2021/06/03 02:10:48;;;;;;;0.20;0.20;;;16.70;70.70;;;;;;5050228;28;20043;-78
2021/06/03 02:13:25;;;;;;;0.22;0.20;;;16.70;70.50;;;;;;5054056;28;20021;-78
2021/06/03 02:16:20;;;;;;;0.38;0.28;;;16.60;70.60;;;;;;5038868;28;20116;-78
2021/06/03 02:18:56;;;;;;;0.30;0.30;;;16.60;70.50;;;;;;5037708;28;20025;-78
2021/06/03 02:21:25;;;;;;;0.30;0.30;;;16.60;70.60;;;;;;5038169;28;20535;-78
2021/06/03 02:23:52;;;;;;;0.40;0.30;;;16.50;71.20;;;;;;5057792;28;20021;-78
2021/06/03 02:26:18;;;;;;;0.20;0.20;;;16.50;71.00;;;;;;5059156;28;20033;-78
2021/06/03 02:28:45;;;;;;;0.40;0.30;;;16.50;70.80;;;;;;5068203;28;20021;-78
2021/06/03 02:31:12;;;;;;;0.25;0.20;;;16.50;70.90;;;;;;5058765;28;20100;-79
2021/06/03 02:33:38;;;;;;;0.25;0.20;;;16.50;70.50;;;;;;5053502;28;20434;-78
2021/06/03 02:36:04;;;;;;;0.20;0.20;;;16.50;70.20;;;;;;5037640;28;20124;-78
2021/06/03 02:38:43;;;;;;;;;;;;;;;;;;;;;
2021/06/03 02:41:10;;;;;;;0.30;0.30;;;16.50;71.10;;;;;;5038782;28;20033;-78
2021/06/03 02:43:37;;;;;;;0.20;0.20;;;16.50;70.50;;;;;;5038987;28;20064;-78
2021/06/03 02:46:04;;;;;;;0.30;0.30;;;16.50;71.40;;;;;;5037149;28;20041;-77
2021/06/03 02:48:30;;;;;;;0.20;0.20;;;16.50;70.80;;;;;;5045383;28;20056;-78
2021/06/03 02:50:56;;;;;;;0.20;0.20;;;16.50;71.20;;;;;;5056070;28;20032;-78
2021/06/03 02:56:44;;;;;;;0.30;0.30;;;16.30;71.40;;;;;;5038366;28;20096;-77
2021/06/03 02:59:10;;;;;;;0.30;0.30;;;16.30;71.70;;;;;;5053498;28;20025;-78
2021/06/03 03:01:35;;;;;;;0.20;0.20;;;16.30;71.10;;;;;;5057815;28;20029;-78
2021/06/03 03:04:01;;;;;;;0.28;0.20;;;16.30;71.40;;;;;;5056741;28;20108;-78
2021/06/03 03:06:27;;;;;;;0.20;0.20;;;16.30;71.10;;;;;;5051505;28;20029;-78
2021/06/03 03:08:52;;;;;;;0.30;0.30;;;16.30;70.40;;;;;;5038347;28;20026;-78
2021/06/03 03:11:18;;;;;;;0.30;0.30;;;16.40;70.30;;;;;;5038340;28;20075;-78
2021/06/03 03:13:44;;;;;;;0.40;0.35;;;16.30;70.20;;;;;;5036727;28;20029;-78
2021/06/03 03:16:09;;;;;;;0.20;0.20;;;16.30;71.00;;;;;;5047320;28;20029;-78
2021/06/03 03:18:38;;;;;;;0.20;0.20;;;16.20;70.90;;;;;;5057820;28;20035;-77
2021/06/03 03:21:05;;;;;;;0.30;0.30;;;16.10;71.70;;;;;;5059098;28;20033;-78
2021/06/03 03:26:53;;;;;;;0.30;0.30;;;16.20;71.20;;;;;;5040808;28;20036;-78
2021/06/03 03:29:19;;;;;;;0.30;0.30;;;16.20;71.20;;;;;;5060823;28;20680;-78
2021/06/03 03:31:44;;;;;;;0.30;0.22;;;16.30;71.70;;;;;;5057786;28;20033;-78
2021/06/03 03:34:10;;;;;;;0.28;0.28;;;16.30;71.40;;;;;;5052289;28;20424;-78
2021/06/03 03:36:37;;;;;;;0.30;0.20;;;16.20;71.60;;;;;;5037662;28;20125;-78
2021/06/03 03:39:04;;;;;;;0.30;0.25;;;16.20;72.50;;;;;;5037613;28;20025;-78
2021/06/03 03:41:32;;;;;;;0.30;0.30;;;16.20;71.70;;;;;;5044464;28;20029;-77
2021/06/03 03:43:57;;;;;;;0.20;0.20;;;16.20;72.60;;;;;;5057497;28;20025;-78
2021/06/03 03:46:23;;;;;;;0.30;0.20;;;16.20;72.70;;;;;;5049574;28;20117;-78
2021/06/03 03:49:09;;;;;;;0.20;0.20;;;16.20;71.90;;;;;;5037450;28;20029;-77
2021/06/03 03:51:34;;;;;;;0.30;0.30;;;16.20;72.30;;;;;;5052587;28;20053;-78
2021/06/03 03:54:00;;;;;;;0.30;0.30;;;16.30;72.30;;;;;;5036266;28;20025;-78
2021/06/03 03:56:26;;;;;;;0.20;0.20;;;16.30;72.10;;;;;;5037184;28;20103;-78
2021/06/03 03:58:51;;;;;;;0.40;0.30;;;16.30;73.00;;;;;;5037223;28;20050;-78
2021/06/03 04:01:18;;;;;;;0.30;0.30;;;16.30;72.40;;;;;;5035749;28;20038;-78
2021/06/03 04:03:44;;;;;;;0.30;0.30;;;16.30;72.70;;;;;;5052329;28;20017;-78
2021/06/03 04:06:10;;;;;;;0.43;0.30;;;16.30;72.60;;;;;;5037092;28;20033;-78
2021/06/03 04:08:36;;;;;;;0.30;0.30;;;16.30;72.70;;;;;;5037454;28;20033;-78
2021/06/03 04:11:02;;;;;;;0.20;0.20;;;16.30;72.40;;;;;;5035569;28;20029;-78
2021/06/03 04:13:27;;;;;;;0.30;0.30;;;16.30;72.40;;;;;;5052373;28;20492;-79
2021/06/03 04:15:54;;;;;;;0.20;0.20;;;16.30;72.00;;;;;;5037012;28;20511;-78
2021/06/03 04:18:21;;;;;;;0.20;0.20;;;16.30;72.30;;;;;;5036740;28;20167;-78
2021/06/03 04:20:48;;;;;;;0.20;0.20;;;16.20;72.10;;;;;;5035582;28;20033;-78
2021/06/03 04:23:13;;;;;;;0.30;0.30;;;16.20;72.20;;;;;;5035622;28;20095;-79
2021/06/03 04:25:39;;;;;;;0.22;0.22;;;16.20;72.20;;;;;;5036878;28;20068;-78
2021/06/03 04:28:08;;;;;;;0.47;0.30;;;16.20;72.00;;;;;;5062950;28;20099;-78
2021/06/03 04:30:34;;;;;;;0.20;0.20;;;16.20;71.90;;;;;;5076603;28;20479;-78
2021/06/03 04:33:00;;;;;;;0.30;0.25;;;16.30;71.80;;;;;;5062544;28;20025;-78
2021/06/03 04:35:27;;;;;;;0.20;0.20;;;16.20;72.30;;;;;;5055255;28;20033;-78
2021/06/03 04:37:52;;;;;;;0.50;0.35;;;16.20;72.60;;;;;;5039121;28;20033;-78
2021/06/03 04:40:21;;;;;;;0.30;0.30;;;16.20;72.10;;;;;;5036733;28;20060;-78
2021/06/03 04:42:49;;;;;;;0.40;0.30;;;16.30;71.60;;;;;;5036210;28;20491;-78
2021/06/03 04:45:16;;;;;;;0.28;0.20;;;16.30;71.90;;;;;;5036435;28;20029;-78
2021/06/03 04:47:43;;;;;;;0.30;0.30;;;16.40;71.70;;;;;;5036356;28;20084;-78
2021/06/03 05:08:12;;;;;;;0.40;0.40;;;15.30;76.40;;;;;;5170201;27;131511;-86
2021/06/03 05:10:38;;;;;;;0.50;0.35;;;15.40;76.80;;;;;;5151534;27;20048;-74
2021/06/03 05:13:06;;;;;;;0.25;0.25;;;15.70;76.30;;;;;;5142276;27;20035;-75
2021/06/03 05:15:32;;;;;;;0.38;0.30;;;15.90;75.50;;;;;;5142199;27;20400;-75
2021/06/03 05:17:58;;;;;;;0.47;0.40;;;16.20;74.80;;;;;;5151389;27;20446;-74
2021/06/03 05:20:26;;;;;;;0.30;0.30;;;16.40;73.80;;;;;;5153320;27;20030;-75
2021/06/03 05:22:54;;;;;;;0.30;0.30;;;16.60;73.30;;;;;;5169466;27;20463;-75
2021/06/03 05:25:24;;;;;;;0.40;0.30;;;16.70;72.60;;;;;;5151628;27;20037;-75
2021/06/03 05:27:51;;;;;;;0.28;0.28;;;16.80;72.30;;;;;;5153415;27;20023;-75
2021/06/03 05:30:18;;;;;;;0.20;0.20;;;17.00;71.90;;;;;;5146370;27;20072;-75
2021/06/03 05:32:44;;;;;;;0.30;0.30;;;17.10;71.40;;;;;;5131285;27;20044;-75
2021/06/03 05:35:13;;;;;;;0.40;0.30;;;17.20;71.00;;;;;;5140452;27;20097;-75
2021/06/03 05:37:40;;;;;;;0.30;0.30;;;17.30;70.90;;;;;;5147716;27;20019;-74
2021/06/03 05:40:08;;;;;;;0.43;0.30;;;17.30;70.90;;;;;;5150755;27;20045;-75
2021/06/03 05:42:34;;;;;;;0.30;0.30;;;17.40;70.70;;;;;;5153449;27;20053;-74
2021/06/03 05:45:00;;;;;;;0.35;0.30;;;17.50;70.60;;;;;;5151074;27;20031;-75
2021/06/03 05:47:25;;;;;;;0.32;0.30;;;17.60;70.00;;;;;;5151397;27;20373;-75
2021/06/03 05:49:51;;;;;;;0.30;0.20;;;17.50;70.10;;;;;;5139052;27;20031;-75
2021/06/03 05:52:17;;;;;;;0.20;0.20;;;17.50;70.40;;;;;;5141311;27;20071;-74
2021/06/03 05:54:43;;;;;;;0.20;0.20;;;17.50;70.30;;;;;;5154469;27;20029;-74
2021/06/03 05:57:08;;;;;;;0.30;0.25;;;17.50;70.50;;;;;;5160592;27;20027;-74
2021/06/03 05:59:34;;;;;;;0.30;0.20;;;17.50;70.50;;;;;;5154542;27;20030;-75
2021/06/03 06:02:04;;;;;;;0.32;0.30;;;17.50;71.00;;;;;;5152061;27;20019;-76
2021/06/03 06:06:55;;;;;;;0.38;0.30;;;17.30;71.80;;;;;;5142310;27;20044;-76
2021/06/03 06:09:21;;;;;;;0.20;0.20;;;17.50;71.30;;;;;;5142594;27;20062;-74
2021/06/03 06:11:47;;;;;;;0.30;0.22;;;17.80;70.40;;;;;;5147256;27;20027;-74
2021/06/03 06:14:13;;;;;;;0.30;0.30;;;18.00;69.90;;;;;;5148314;27;20106;-74
2021/06/03 06:16:40;;;;;;;0.35;0.30;;;18.20;69.40;;;;;;5127989;27;20029;-75
2021/06/03 06:19:07;;;;;;;0.22;0.20;;;18.30;68.70;;;;;;5130111;27;20807;-75
2021/06/03 06:21:33;;;;;;;0.30;0.30;;;18.40;68.50;;;;;;5126160;27;20023;-75
2021/06/03 06:23:59;;;;;;;0.30;0.30;;;18.40;68.40;;;;;;5126776;27;20437;-74
2021/06/03 06:26:25;;;;;;;0.38;0.20;;;18.40;68.40;;;;;;5121958;27;20023;-74
2021/06/03 06:28:53;;;;;;;0.50;0.30;;;18.30;68.50;;;;;;5135456;27;20052;-74
2021/06/03 06:31:20;;;;;;;0.38;0.25;;;18.30;68.90;;;;;;5129464;27;20084;-74
2021/06/03 06:33:47;;;;;;;0.35;0.30;;;18.40;68.50;;;;;;5135125;27;20493;-74
2021/06/03 06:36:13;;;;;;;0.50;0.40;;;18.50;68.60;;;;;;5134133;27;20083;-74
2021/06/03 06:38:39;;;;;;;0.30;0.22;;;18.70;68.30;;;;;;5127180;27;20031;-75
2021/06/03 06:41:06;;;;;;;0.50;0.30;;;18.90;67.60;;;;;;5129941;27;20023;-75
2021/06/03 06:43:33;;;;;;;0.32;0.30;;;19.20;66.90;;;;;;5127386;27;20025;-75
2021/06/03 06:46:01;;;;;;;0.20;0.20;;;19.40;66.20;;;;;;5130969;27;20102;-75
2021/06/03 06:48:26;;;;;;;0.32;0.20;;;19.80;65.60;;;;;;5133226;27;20019;-75
2021/06/03 06:50:52;;;;;;;0.38;0.22;;;20.00;64.50;;;;;;5137650;27;20064;-75
2021/06/03 06:53:19;;;;;;;0.30;0.20;;;20.20;63.70;;;;;;5123709;27;20035;-75
2021/06/03 06:55:45;;;;;;;0.35;0.30;;;20.30;63.30;;;;;;5134949;27;20033;-74
2021/06/03 06:58:12;;;;;;;0.20;0.20;;;20.30;63.20;;;;;;5137378;27;20027;-75
2021/06/03 07:00:40;;;;;;;0.22;0.20;;;20.40;62.80;;;;;;5137115;27;20007;-74
2021/06/03 07:03:07;;;;;;;0.40;0.30;;;20.70;62.40;;;;;;5135903;27;20022;-75
2021/06/03 07:05:33;;;;;;;0.45;0.20;;;21.00;61.20;;;;;;5135843;27;20023;-75
2021/06/03 07:07:59;;;;;;;0.30;0.20;;;21.10;60.60;;;;;;5135826;27;20142;-75
2021/06/03 07:10:25;;;;;;;0.30;0.15;;;21.20;60.60;;;;;;5134065;27;20023;-75
2021/06/03 07:12:52;;;;;;;0.30;0.20;;;21.30;60.20;;;;;;5129856;27;20033;-75
2021/06/03 07:15:19;;;;;;;0.20;0.10;;;21.30;60.30;;;;;;5116391;28;20030;-75
2021/06/03 07:17:45;;;;;;;0.17;0.10;;;21.30;60.00;;;;;;5116909;28;20031;-75
2021/06/03 07:20:14;;;;;;;0.50;0.30;;;21.20;60.20;;;;;;5116305;28;20023;-75
2021/06/03 07:22:46;;;;;;;0.30;0.20;;;21.00;60.50;;;;;;5125955;27;20027;-74
2021/06/03 07:25:12;;;;;;;0.20;0.10;;;21.00;60.70;;;;;;5136440;27;20020;-74
2021/06/03 07:27:39;;;;;;;0.28;0.20;;;21.00;60.80;;;;;;5136769;27;20121;-74
2021/06/03 07:30:07;;;;;;;0.38;0.20;;;20.80;60.70;;;;;;5120005;27;20549;-74
2021/06/03 07:32:34;;;;;;;0.20;0.20;;;20.80;61.40;;;;;;5116363;28;20032;-74
2021/06/03 07:35:00;;;;;;;0.30;0.22;;;20.70;61.70;;;;;;5115975;28;20103;-74
2021/06/03 07:37:27;;;;;;;0.43;0.28;;;20.90;61.40;;;;;;5116292;27;20092;-75
2021/06/03 07:39:52;;;;;;;0.40;0.20;;;22.90;56.80;;;;;;5136568;27;20019;-75
2021/06/03 07:42:18;;;;;;;0.30;0.20;;;23.40;54.70;;;;;;5134307;27;20027;-74
2021/06/03 07:44:46;;;;;;;0.20;0.10;;;23.00;55.30;;;;;;5125295;27;20066;-74
2021/06/03 07:47:12;;;;;;;0.20;0.10;;;22.50;56.10;;;;;;5129944;27;20029;-75
2021/06/03 07:49:38;;;;;;;0.22;0.20;;;22.00;57.50;;;;;;5121623;27;20020;-74
2021/06/03 07:52:04;;;;;;;0.40;0.20;;;21.90;57.70;;;;;;5126512;27;20088;-74
2021/06/03 07:54:30;;;;;;;0.30;0.20;;;21.90;58.10;;;;;;5118616;27;20560;-74
2021/06/03 07:56:57;;;;;;;0.32;0.20;;;22.20;57.20;;;;;;5134787;27;20085;-73
2021/06/03 07:59:24;;;;;;;0.30;0.30;;;22.30;56.90;;;;;;5124717;27;20026;-74
2021/06/03 08:01:50;;;;;;;0.10;0.10;;;22.80;56.50;;;;;;5127868;27;20035;-73
2021/06/03 08:04:17;;;;;;;0.20;0.10;;;24.90;50.70;;;;;;5120695;27;20767;-74
2021/06/03 08:06:44;;;;;;;0.20;0.10;;;24.90;49.90;;;;;;5125478;27;20433;-74
2021/06/03 08:09:10;;;;;;;0.20;0.10;;;25.20;49.60;;;;;;5129756;27;20036;-74
2021/06/03 08:11:35;;;;;;;0.30;0.17;;;25.10;50.30;;;;;;5122903;27;20041;-74
2021/06/03 08:14:01;;;;;;;0.20;0.17;;;25.50;49.30;;;;;;5131984;27;20046;-74
2021/06/03 08:16:27;;;;;;;0.10;0.10;;;25.20;48.90;;;;;;5131456;27;21109;-74
2021/06/03 08:18:53;;;;;;;0.10;0.10;;;25.00;48.90;;;;;;5122493;27;20050;-74
2021/06/03 08:21:19;;;;;;;0.20;0.10;;;24.50;50.10;;;;;;5128942;27;20033;-74
2021/06/03 08:23:45;;;;;;;0.10;0.10;;;23.80;51.40;;;;;;5135472;27;20051;-74
2021/06/03 08:26:10;;;;;;;0.35;0.20;;;23.00;53.00;;;;;;5134632;27;20023;-74
2021/06/03 08:28:36;;;;;;;0.20;0.10;;;22.60;54.30;;;;;;5133057;27;20107;-74
2021/06/03 08:31:02;;;;;;;0.10;0.10;;;22.50;55.10;;;;;;5135874;27;20162;-74
2021/06/03 08:33:29;;;;;;;0.30;0.20;;;22.40;55.70;;;;;;5135253;27;20027;-74
2021/06/03 08:35:55;;;;;;;0.20;0.10;;;22.30;56.50;;;;;;5120125;27;20081;-74
2021/06/03 08:38:21;;;;;;;0.22;0.13;;;22.20;56.40;;;;;;5115184;28;20102;-74
2021/06/03 08:40:56;;;;;;;0.20;0.13;;;22.00;56.80;;;;;;5130650;27;20051;-74
2021/06/03 08:43:22;;;;;;;0.30;0.20;;;21.70;57.60;;;;;;5124322;27;20027;-74
2021/06/03 08:45:49;;;;;;;0.10;0.10;;;21.20;58.30;;;;;;5135518;27;20034;-74
2021/06/03 08:48:15;;;;;;;0.20;0.20;;;20.90;59.50;;;;;;5135810;27;20072;-74
2021/06/03 08:50:44;;;;;;;0.30;0.20;;;20.70;60.40;;;;;;5134383;27;20393;-74
2021/06/03 08:53:11;;;;;;;0.38;0.20;;;20.50;60.90;;;;;;5132605;27;20134;-74
2021/06/03 08:58:24;;;;;;;0.25;0.20;;;20.30;62.10;;;;;;5131560;27;20081;-75
2021/06/03 09:00:50;;;;;;;0.77;0.20;;;20.60;61.80;;;;;;5121171;27;20019;-75
2021/06/03 09:03:16;;;;;;;0.20;0.20;;;20.60;61.90;;;;;;5140418;27;20033;-75
2021/06/03 09:05:44;;;;;;;0.30;0.20;;;20.30;62.30;;;;;;5140440;27;20023;-75
2021/06/03 09:08:17;;;;;;;0.20;0.20;;;20.30;63.50;;;;;;5132901;28;20058;-75
2021/06/03 09:10:43;;;;;;;0.30;0.20;;;20.20;63.60;;;;;;5135423;27;20087;-75
2021/06/03 09:13:22;;;;;;;0.40;0.30;;;20.20;64.50;;;;;;5135453;28;20046;-75
2021/06/03 09:15:53;;;;;;;0.20;0.20;;;20.10;64.90;;;;;;5133689;27;20030;-75
2021/06/03 09:18:31;;;;;;;0.40;0.20;;;19.80;64.90;;;;;;5114785;28;20103;-75
2021/06/03 09:21:08;;;;;;;0.40;0.30;;;19.90;65.20;;;;;;5113946;28;20122;-74
2021/06/03 09:23:35;;;;;;;0.30;0.20;;;19.90;66.00;;;;;;5114913;28;20425;-74
2021/06/03 09:26:15;;;;;;;0.30;0.30;;;19.90;65.20;;;;;;5116786;28;20038;-74
2021/06/03 09:28:49;;;;;;;0.52;0.30;;;19.80;66.50;;;;;;5132153;28;20034;-74
2021/06/03 09:31:20;;;;;;;0.32;0.28;;;19.80;67.50;;;;;;5115403;27;20028;-75
2021/06/03 09:33:53;;;;;;;0.30;0.25;;;19.70;68.30;;;;;;5134571;28;20030;-74
2021/06/03 09:36:30;;;;;;;0.30;0.30;;;19.60;68.90;;;;;;5133511;27;20031;-74
2021/06/03 09:39:07;;;;;;;0.38;0.20;;;19.40;69.40;;;;;;5134960;27;20421;-74
2021/06/03 09:41:35;;;;;;;0.45;0.25;;;19.20;70.90;;;;;;5134737;28;20035;-74
2021/06/03 09:44:08;;;;;;;0.50;0.30;;;19.00;72.60;;;;;;5135051;27;20043;-74
2021/06/03 09:46:38;;;;;;;0.40;0.30;;;19.10;71.30;;;;;;5129547;27;20045;-74
2021/06/03 09:49:06;;;;;;;0.52;0.30;;;19.20;72.50;;;;;;5123382;28;20082;-74
2021/06/03 09:51:38;;;;;;;0.30;0.20;;;19.10;72.50;;;;;;5134793;28;20031;-74
2021/06/03 09:54:12;;;;;;;0.30;0.20;;;19.00;72.40;;;;;;5134705;27;20027;-74
2021/06/03 09:56:47;;;;;;;0.28;0.20;;;19.00;72.00;;;;;;5127167;27;20130;-74
2021/06/03 09:59:28;;;;;;;0.40;0.20;;;19.10;72.40;;;;;;5135301;27;20556;-75
2021/06/03 10:01:55;;;;;;;0.43;0.30;;;18.90;73.20;;;;;;5137931;27;20020;-74
2021/06/03 10:04:34;;;;;;;0.40;0.30;;;19.00;72.50;;;;;;5135947;27;20076;-75
2021/06/03 10:07:12;;;;;;;0.32;0.22;;;18.90;73.70;;;;;;5121935;27;20050;-74
2021/06/03 10:09:42;;;;;;;0.45;0.30;;;18.90;73.00;;;;;;5137970;27;20030;-74
2021/06/03 10:12:09;;;;;;;;;;;18.90;72.90;;;;;;5117419;28;20085;-75
2021/06/03 10:14:37;;;;;;;0.30;0.20;;;19.10;72.80;;;;;;5119303;27;19967;-75
2021/06/03 10:17:13;;;;;;;0.38;0.25;;;19.30;72.80;;;;;;5137144;27;20023;-75
2021/06/03 10:19:39;;;;;;;0.38;0.30;;;19.50;72.30;;;;;;5127550;27;20061;-75
2021/06/03 10:22:29;;;;;;;0.40;0.30;;;19.50;71.60;;;;;;5134120;27;20019;-78
2021/06/03 10:25:09;;;;;;;0.40;0.30;;;19.50;71.50;;;;;;5129559;27;20018;-76
2021/06/03 10:27:43;;;;;;;0.20;0.20;;;19.50;71.00;;;;;;5122668;27;20459;-77
2021/06/03 10:30:21;;;;;;;0.28;0.20;;;19.40;70.60;;;;;;5123624;27;20035;-77
2021/06/03 10:32:49;;;;;;;0.20;0.20;;;19.40;71.40;;;;;;5122624;27;20369;-77
2021/06/03 10:35:23;;;;;;;0.30;0.20;;;19.40;71.90;;;;;;5122576;27;20038;-75
2021/06/03 10:37:50;;;;;;;0.50;0.30;;;19.40;71.80;;;;;;5124468;27;20086;-81
2021/06/03 10:40:20;;;;;;;0.50;0.30;;;19.40;71.20;;;;;;5124910;27;20032;-76
2021/06/03 10:42:46;;;;;;;0.40;0.30;;;19.50;70.60;;;;;;5132134;27;20024;-76
2021/06/03 10:45:16;;;;;;;0.30;0.20;;;19.70;70.80;;;;;;5120595;27;20030;-78
2021/06/03 10:47:42;;;;;;;0.32;0.20;;;19.80;71.80;;;;;;5123206;27;20030;-78
2021/06/03 10:50:32;;;;;;;0.32;0.20;;;19.90;69.10;;;;;;5120543;27;20118;-79
2021/06/03 10:53:14;;;;;;;0.40;0.25;;;20.00;69.40;;;;;;5113754;27;20063;-77
2021/06/03 10:55:42;;;;;;;0.35;0.22;;;20.10;70.60;;;;;;5114392;27;20449;-76
2021/06/03 10:58:11;;;;;;;0.60;0.30;;;20.20;69.80;;;;;;5125101;27;20102;-75
2021/06/03 11:00:40;;;;;;;0.50;0.30;;;20.40;69.60;;;;;;5127787;27;20027;-75
2021/06/03 11:03:09;;;;;;;0.30;0.20;;;20.50;69.90;;;;;;5113118;27;20031;-76
2021/06/03 11:05:46;;;;;;;0.28;0.20;;;20.50;69.50;;;;;;5128858;27;20260;-80
2021/06/03 11:08:24;;;;;;;0.22;0.20;;;20.70;69.30;;;;;;5115935;27;20051;-76
2021/06/03 11:10:50;;;;;;;0.20;0.20;;;20.80;69.50;;;;;;5143089;27;20024;-77
2021/06/03 11:13:20;;;;;;;0.30;0.20;;;20.70;70.10;;;;;;5133471;27;20118;-76
2021/06/03 11:16:09;;;;;;;0.28;0.20;;;20.70;69.50;;;;;;5126024;27;20042;-76
2021/06/03 11:18:44;;;;;;;0.20;0.20;;;20.60;69.80;;;;;;5114981;27;20039;-76
2021/06/03 11:21:32;;;;;;;0.30;0.20;;;20.50;70.20;;;;;;5104117;28;20039;-75
2021/06/03 11:24:03;;;;;;;0.30;0.20;;;20.50;70.80;;;;;;5104610;28;20103;-76
2021/06/03 11:26:38;;;;;;;0.28;0.20;;;20.60;70.30;;;;;;5104271;28;20023;-76
2021/06/03 11:29:07;;;;;;;0.30;0.20;;;20.50;70.60;;;;;;5109243;28;20707;-76
2021/06/03 11:31:33;;;;;;;0.30;0.20;;;20.50;70.50;;;;;;5104981;28;20028;-76
2021/06/03 11:34:22;;;;;;;0.25;0.20;;;20.40;69.80;;;;;;5103303;28;20185;-76
2021/06/03 11:37:02;;;;;;;0.30;0.20;;;20.30;70.60;;;;;;5110086;28;20027;-76
2021/06/03 11:39:31;;;;;;;0.32;0.20;;;20.40;70.70;;;;;;5105568;28;20031;-75
2021/06/03 11:42:36;;;;;;;0.25;0.17;;;20.40;70.70;;;;;;5113271;27;20445;-75
2021/06/03 11:45:12;;;;;;;0.30;0.20;;;20.30;70.90;;;;;;5116005;27;20012;-76
2021/06/03 11:47:37;;;;;;;0.30;0.20;;;20.40;70.60;;;;;;5105128;28;20027;-76
2021/06/03 11:50:23;;;;;;;0.40;0.22;;;20.40;70.00;;;;;;5115929;28;20066;-75
2021/06/03 11:53:03;;;;;;;0.25;0.20;;;20.50;70.20;;;;;;5092891;28;20060;-76
2021/06/03 11:55:39;;;;;;;0.30;0.20;;;20.70;69.70;;;;;;5095178;28;20028;-75
2021/06/03 11:58:20;;;;;;;0.20;0.20;;;21.00;69.90;;;;;;5094082;28;20403;-76
2021/06/03 12:00:58;;;;;;;0.20;0.20;;;21.40;69.10;;;;;;5110370;28;20119;-76
2021/06/03 12:03:37;;;;;;;0.45;0.30;;;21.90;68.20;;;;;;5095763;28;20440;-76
2021/06/03 12:06:16;;;;;;;0.10;0.10;;;22.40;66.40;;;;;;5111422;28;20027;-76
2021/06/03 12:08:48;;;;;;;0.10;0.10;;;22.90;68.40;;;;;;5116123;27;20051;-76
2021/06/03 12:11:40;;;;;;;0.10;0.10;;;23.00;66.30;;;;;;5125638;27;20027;-76
2021/06/03 12:14:11;;;;;;;0.10;0.10;;;23.30;64.40;;;;;;5123351;27;20016;-76
2021/06/03 12:16:42;;;;;;;0.10;0.10;;;23.40;63.80;;;;;;5118475;27;20030;-76
2021/06/03 12:19:11;;;;;;;0.10;0.10;;;23.30;62.40;;;;;;5115325;28;20018;-76
2021/06/03 12:21:38;;;;;;;0.20;0.10;;;23.20;62.50;;;;;;5095050;28;20028;-76
2021/06/03 12:24:04;;;;;;;0.20;0.10;;;23.30;64.80;;;;;;5115859;28;20423;-76
2021/06/03 12:26:30;;;;;;;0.10;0.10;;;23.20;62.80;;;;;;5086173;28;20063;-76
2021/06/03 12:28:55;;;;;;;0.10;0.10;;;23.30;61.80;;;;;;5105888;28;20053;-76
2021/06/03 12:31:28;;;;;;;0.10;0.10;;;23.40;62.80;;;;;;5115620;28;20043;-76
2021/06/03 12:33:55;;;;;;;0.10;0.10;;;23.30;62.00;;;;;;5101440;28;20088;-76
2021/06/03 12:36:25;;;;;;;0.10;0.10;;;23.30;64.10;;;;;;5097412;28;20028;-76
2021/06/03 12:38:53;;;;;;;0.10;0.10;;;23.40;63.40;;;;;;5095011;28;20028;-76
2021/06/03 12:41:37;;;;;;;0.10;0.10;;;23.40;62.60;;;;;;5110491;27;20374;-76
2021/06/03 12:44:18;;;;;;;0.10;0.10;;;23.40;64.50;;;;;;5121329;27;20096;-76
2021/06/03 12:46:47;;;;;;;0.10;0.10;;;23.30;62.90;;;;;;5125760;27;20057;-76
2021/06/03 12:49:17;;;;;;;0.10;0.10;;;23.40;62.40;;;;;;5123992;27;20012;-76
2021/06/03 12:51:52;;;;;;;0.00;0.00;;;23.30;62.60;;;;;;5125102;27;20042;-76
2021/06/03 12:54:36;;;;;;;0.10;0.10;;;23.00;62.60;;;;;;5115859;27;20456;-76
2021/06/03 12:57:06;;;;;;;0.20;0.10;;;23.00;63.20;;;;;;5112439;27;20032;-76
2021/06/03 12:59:33;;;;;;;0.10;0.10;;;22.80;62.60;;;;;;5125366;28;20091;-76
2021/06/03 13:02:05;;;;;;;0.10;0.10;;;22.80;63.70;;;;;;5098047;27;20101;-76
2021/06/03 13:04:42;;;;;;;0.10;0.10;;;22.70;63.20;;;;;;5111522;28;20032;-76
2021/06/03 13:07:10;;;;;;;0.10;0.10;;;22.70;63.60;;;;;;5114529;28;20051;-76
2021/06/03 13:09:39;;;;;;;0.10;0.10;;;22.70;63.70;;;;;;5114660;28;20035;-76
2021/06/03 13:12:10;;;;;;;0.20;0.10;;;22.70;62.60;;;;;;5114781;28;20055;-76
2021/06/03 13:14:41;;;;;;;0.10;0.10;;;22.60;63.80;;;;;;5101441;28;20032;-76
2021/06/03 13:17:11;;;;;;;0.10;0.10;;;22.40;64.10;;;;;;5114118;28;20034;-76
2021/06/03 13:19:38;;;;;;;0.10;0.10;;;22.30;65.00;;;;;;5107582;28;20034;-76
2021/06/03 13:22:04;;;;;;;0.10;0.10;;;22.30;64.50;;;;;;5113992;28;20095;-76
2021/06/03 13:24:41;;;;;;;0.25;0.10;;;22.50;63.70;;;;;;5104778;28;20143;-76
2021/06/03 13:27:07;;;;;;;0.10;0.10;;;22.60;63.50;;;;;;5103069;28;20042;-76
2021/06/03 13:29:40;;;;;;;0.10;0.10;;;22.70;63.00;;;;;;5114231;28;20837;-76
2021/06/03 13:32:06;;;;;;;0.10;0.10;;;22.70;62.70;;;;;;5110329;28;20090;-76